Startpagina
METAR-TAF:

METAR-TAF

Vliegvelden :

Luchthaven Odessa

Odessa, Oekraïne

breedte: 46-26N, lengte: 030-46E, hoogte: 42 m

Actueel weer

Dit bericht is 11 minuten geleden gemaakt, om 14:00 UTC
Wind 12 kt uit het zuiden
Temperatuur 16°C
Vochtigheid 42%
Druk 1021 hPa
Zicht 10 km of meer
geen wolken onder 1500 m en geen cumulonimbus

METAR: UKOO 261400Z 17006MPS CAVOK 16/03 Q1021 R16/090060 NOSIG

Tijdstip: 17:11 (14:11 UTC)

Verwachting

Dit bericht is 3 uur en het 6 minuten geleden gemaakt, om 11:05 UTC
Verwachting geldig van 26 om 12 UTC tot 27 om 12 UTC
Wind 6 kt uit het zuiden
Zicht: 6000 m
Verspreide wolken op 1000 ft
Wijzigt naar
van 26 om 15 UTC tot 26 om 16 UTC
Zicht: 2100 m
nevel
Kans 40% :
Tijdelijke
van 26 om 16 UTC tot 27 om 06 UTC
Zicht: 0300 m
op 200 ft
mist

TAF: UKOO 261105Z 2612/2712 17003MPS 6000 SCT010 TX17/2612Z TN04/2704Z BECMG 2615/2616 2100 BR PROB40 TEMPO 2616/2706 0300 FG VV002

Waarnemingen en weersverwachtingen van meer dan 4000 vliegvelden (METAR en TAF).

De beschikbare stations zijn de gele en rode punten op de kaart.

Ga met uw muis naar het station om de naam te zien.

Klik dan om waarnemingen en weersverwachtingen te zien.

kaart wijzigen: klik op de groene knoppen met een zwart kruis om in te zoomen, op de groene knop met een streepje om uit te zoomen of op de groene pijlen voor aangrenzende kaarten.


METAR-TAF: